sensor_id;sensor_type;location;lat;lon;timestamp;P1;durP1;ratioP1;P2;durP2;ratioP2
11039;SDS011;5573;49.592;8.662;2023-09-18T00:01:43;304.25;;;288.92;;
11039;SDS011;5573;49.592;8.662;2023-09-18T00:04:11;295.92;;;280.95;;
11039;SDS011;5573;49.592;8.662;2023-09-18T00:06:39;305.58;;;290.17;;
11039;SDS011;5573;49.592;8.662;2023-09-18T00:09:07;307.27;;;291.80;;
11039;SDS011;5573;49.592;8.662;2023-09-18T00:11:37;305.63;;;290.15;;
11039;SDS011;5573;49.592;8.662;2023-09-18T00:14:05;304.60;;;289.15;;
11039;SDS011;5573;49.592;8.662;2023-09-18T00:16:37;298.23;;;283.17;;
11039;SDS011;5573;49.592;8.662;2023-09-18T00:19:23;306.67;;;291.27;;
11039;SDS011;5573;49.592;8.662;2023-09-18T00:21:51;316.30;;;300.23;;
11039;SDS011;5573;49.592;8.662;2023-09-18T00:24:21;304.95;;;289.45;;
11039;SDS011;5573;49.592;8.662;2023-09-18T00:26:49;315.00;;;299.10;;
11039;SDS011;5573;49.592;8.662;2023-09-18T00:29:19;294.27;;;279.27;;
11039;SDS011;5573;49.592;8.662;2023-09-18T00:31:49;298.70;;;283.60;;
11039;SDS011;5573;49.592;8.662;2023-09-18T00:34:17;299.85;;;284.60;;
11039;SDS011;5573;49.592;8.662;2023-09-18T00:36:45;307.63;;;292.08;;
11039;SDS011;5573;49.592;8.662;2023-09-18T00:39:13;296.90;;;282.02;;
11039;SDS011;5573;49.592;8.662;2023-09-18T00:41:42;294.92;;;279.75;;
11039;SDS011;5573;49.592;8.662;2023-09-18T00:44:10;304.67;;;288.98;;
11039;SDS011;5573;49.592;8.662;2023-09-18T00:46:38;316.35;;;300.15;;
11039;SDS011;5573;49.592;8.662;2023-09-18T00:49:07;308.67;;;292.90;;
11039;SDS011;5573;49.592;8.662;2023-09-18T00:51:35;295.33;;;280.27;;
11039;SDS011;5573;49.592;8.662;2023-09-18T00:54:03;295.50;;;280.45;;
11039;SDS011;5573;49.592;8.662;2023-09-18T00:56:32;306.45;;;290.90;;
11039;SDS011;5573;49.592;8.662;2023-09-18T00:59:00;296.02;;;281.15;;
11039;SDS011;5573;49.592;8.662;2023-09-18T01:01:30;294.65;;;279.90;;
11039;SDS011;5573;49.592;8.662;2023-09-18T01:03:59;291.63;;;276.92;;
11039;SDS011;5573;49.592;8.662;2023-09-18T01:06:29;305.15;;;290.00;;
11039;SDS011;5573;49.592;8.662;2023-09-18T01:08:58;319.85;;;303.92;;
11039;SDS011;5573;49.592;8.662;2023-09-18T01:11:29;291.67;;;277.00;;
11039;SDS011;5573;49.592;8.662;2023-09-18T01:14:20;290.27;;;275.52;;
11039;SDS011;5573;49.592;8.662;2023-09-18T01:16:57;270.50;;;256.92;;
11039;SDS011;5573;49.592;8.662;2023-09-18T01:19:35;293.52;;;279.05;;
11039;SDS011;5573;49.592;8.662;2023-09-18T01:22:06;278.05;;;264.17;;
11039;SDS011;5573;49.592;8.662;2023-09-18T01:24:36;294.15;;;279.33;;
11039;SDS011;5573;49.592;8.662;2023-09-18T01:27:07;297.73;;;282.88;;
11039;SDS011;5573;49.592;8.662;2023-09-18T01:29:37;297.70;;;282.55;;
11039;SDS011;5573;49.592;8.662;2023-09-18T01:32:05;286.10;;;271.73;;
11039;SDS011;5573;49.592;8.662;2023-09-18T01:34:33;295.27;;;280.20;;
11039;SDS011;5573;49.592;8.662;2023-09-18T01:37:03;291.58;;;276.90;;
11039;SDS011;5573;49.592;8.662;2023-09-18T01:39:36;291.30;;;276.35;;
11039;SDS011;5573;49.592;8.662;2023-09-18T01:42:05;293.30;;;278.45;;
11039;SDS011;5573;49.592;8.662;2023-09-18T01:44:36;308.05;;;292.52;;
11039;SDS011;5573;49.592;8.662;2023-09-18T01:47:06;319.83;;;303.67;;
11039;SDS011;5573;49.592;8.662;2023-09-18T01:49:36;313.27;;;297.35;;
11039;SDS011;5573;49.592;8.662;2023-09-18T01:52:07;332.83;;;315.80;;
11039;SDS011;5573;49.592;8.662;2023-09-18T01:54:37;321.52;;;305.10;;
11039;SDS011;5573;49.592;8.662;2023-09-18T01:57:05;335.27;;;317.85;;
11039;SDS011;5573;49.592;8.662;2023-09-18T01:59:33;329.08;;;312.05;;
11039;SDS011;5573;49.592;8.662;2023-09-18T02:02:04;327.52;;;310.67;;
11039;SDS011;5573;49.592;8.662;2023-09-18T02:04:34;333.17;;;316.35;;
11039;SDS011;5573;49.592;8.662;2023-09-18T02:07:24;320.42;;;303.92;;
11039;SDS011;5573;49.592;8.662;2023-09-18T02:09:53;346.88;;;328.80;;
11039;SDS011;5573;49.592;8.662;2023-09-18T02:12:21;339.33;;;321.50;;
11039;SDS011;5573;49.592;8.662;2023-09-18T02:14:49;350.70;;;332.42;;
11039;SDS011;5573;49.592;8.662;2023-09-18T02:17:17;356.98;;;338.15;;
11039;SDS011;5573;49.592;8.662;2023-09-18T02:19:47;343.75;;;325.80;;
11039;SDS011;5573;49.592;8.662;2023-09-18T02:22:14;320.35;;;303.90;;
11039;SDS011;5573;49.592;8.662;2023-09-18T02:24:42;313.15;;;296.85;;
11039;SDS011;5573;49.592;8.662;2023-09-18T02:27:12;266.48;;;252.93;;
11039;SDS011;5573;49.592;8.662;2023-09-18T02:29:42;231.60;;;220.15;;
11039;SDS011;5573;49.592;8.662;2023-09-18T02:32:10;221.63;;;210.38;;
11039;SDS011;5573;49.592;8.662;2023-09-18T02:34:38;205.18;;;194.80;;
11039;SDS011;5573;49.592;8.662;2023-09-18T02:37:07;195.18;;;185.23;;
11039;SDS011;5573;49.592;8.662;2023-09-18T02:39:35;195.10;;;185.00;;
11039;SDS011;5573;49.592;8.662;2023-09-18T02:42:03;223.00;;;211.70;;
11039;SDS011;5573;49.592;8.662;2023-09-18T02:44:32;241.15;;;229.02;;
11039;SDS011;5573;49.592;8.662;2023-09-18T02:47:01;245.18;;;232.75;;
11039;SDS011;5573;49.592;8.662;2023-09-18T02:49:29;253.68;;;240.73;;
11039;SDS011;5573;49.592;8.662;2023-09-18T02:51:57;252.65;;;239.90;;
11039;SDS011;5573;49.592;8.662;2023-09-18T02:54:25;258.15;;;244.95;;
11039;SDS011;5573;49.592;8.662;2023-09-18T02:56:53;262.75;;;249.45;;
11039;SDS011;5573;49.592;8.662;2023-09-18T02:59:21;267.27;;;253.77;;
11039;SDS011;5573;49.592;8.662;2023-09-18T03:01:51;257.67;;;244.77;;
11039;SDS011;5573;49.592;8.662;2023-09-18T03:04:19;267.02;;;253.50;;
11039;SDS011;5573;49.592;8.662;2023-09-18T03:06:47;251.65;;;238.88;;
11039;SDS011;5573;49.592;8.662;2023-09-18T03:09:15;256.45;;;243.65;;
11039;SDS011;5573;49.592;8.662;2023-09-18T03:11:45;270.08;;;256.42;;
11039;SDS011;5573;49.592;8.662;2023-09-18T03:14:13;244.02;;;231.60;;
11039;SDS011;5573;49.592;8.662;2023-09-18T03:16:41;268.98;;;255.32;;
11039;SDS011;5573;49.592;8.662;2023-09-18T03:19:10;278.83;;;264.75;;
11039;SDS011;5573;49.592;8.662;2023-09-18T03:21:39;272.13;;;258.33;;
11039;SDS011;5573;49.592;8.662;2023-09-18T03:24:07;280.23;;;266.15;;
11039;SDS011;5573;49.592;8.662;2023-09-18T03:26:35;278.80;;;264.58;;
11039;SDS011;5573;49.592;8.662;2023-09-18T03:29:03;276.13;;;262.15;;
11039;SDS011;5573;49.592;8.662;2023-09-18T03:31:31;269.05;;;255.43;;
11039;SDS011;5573;49.592;8.662;2023-09-18T03:33:59;265.35;;;251.85;;
11039;SDS011;5573;49.592;8.662;2023-09-18T03:36:29;278.63;;;264.77;;
11039;SDS011;5573;49.592;8.662;2023-09-18T03:38:57;271.48;;;257.80;;
11039;SDS011;5573;49.592;8.662;2023-09-18T03:41:25;251.85;;;239.35;;
11039;SDS011;5573;49.592;8.662;2023-09-18T03:43:54;232.48;;;220.90;;
11039;SDS011;5573;49.592;8.662;2023-09-18T03:46:21;202.00;;;191.68;;
11039;SDS011;5573;49.592;8.662;2023-09-18T03:48:50;194.90;;;185.02;;
11039;SDS011;5573;49.592;8.662;2023-09-18T03:51:18;230.02;;;218.57;;
11039;SDS011;5573;49.592;8.662;2023-09-18T03:53:48;211.55;;;200.88;;
11039;SDS011;5573;49.592;8.662;2023-09-18T03:56:18;182.20;;;172.93;;
11039;SDS011;5573;49.592;8.662;2023-09-18T03:58:46;230.20;;;218.68;;
11039;SDS011;5573;49.592;8.662;2023-09-18T04:01:16;255.68;;;242.73;;
11039;SDS011;5573;49.592;8.662;2023-09-18T04:03:45;275.65;;;261.98;;
11039;SDS011;5573;49.592;8.662;2023-09-18T04:06:13;262.13;;;248.95;;
11039;SDS011;5573;49.592;8.662;2023-09-18T04:08:41;247.63;;;235.02;;
11039;SDS011;5573;49.592;8.662;2023-09-18T04:11:10;254.88;;;242.13;;
11039;SDS011;5573;49.592;8.662;2023-09-18T04:13:38;223.98;;;212.65;;
11039;SDS011;5573;49.592;8.662;2023-09-18T04:16:06;223.73;;;212.38;;
11039;SDS011;5573;49.592;8.662;2023-09-18T04:18:34;226.02;;;214.30;;
11039;SDS011;5573;49.592;8.662;2023-09-18T04:21:02;221.40;;;210.00;;
11039;SDS011;5573;49.592;8.662;2023-09-18T04:23:30;218.90;;;207.63;;
11039;SDS011;5573;49.592;8.662;2023-09-18T04:25:59;236.48;;;224.35;;
11039;SDS011;5573;49.592;8.662;2023-09-18T04:28:29;251.95;;;239.18;;
11039;SDS011;5573;49.592;8.662;2023-09-18T04:30:58;261.70;;;248.38;;
11039;SDS011;5573;49.592;8.662;2023-09-18T04:33:26;265.85;;;252.20;;
11039;SDS011;5573;49.592;8.662;2023-09-18T04:35:56;265.55;;;251.70;;
11039;SDS011;5573;49.592;8.662;2023-09-18T04:38:24;264.33;;;250.98;;
11039;SDS011;5573;49.592;8.662;2023-09-18T04:40:57;252.68;;;239.73;;
11039;SDS011;5573;49.592;8.662;2023-09-18T04:43:25;221.10;;;209.90;;
11039;SDS011;5573;49.592;8.662;2023-09-18T04:45:58;187.95;;;178.05;;
11039;SDS011;5573;49.592;8.662;2023-09-18T04:48:26;165.45;;;156.68;;
11039;SDS011;5573;49.592;8.662;2023-09-18T04:50:54;157.88;;;149.40;;
11039;SDS011;5573;49.592;8.662;2023-09-18T04:53:22;159.13;;;150.68;;
11039;SDS011;5573;49.592;8.662;2023-09-18T04:55:50;136.13;;;128.80;;
11039;SDS011;5573;49.592;8.662;2023-09-18T04:58:19;139.38;;;131.70;;
11039;SDS011;5573;49.592;8.662;2023-09-18T05:00:47;141.75;;;134.20;;
11039;SDS011;5573;49.592;8.662;2023-09-18T05:03:22;144.98;;;137.05;;
11039;SDS011;5573;49.592;8.662;2023-09-18T05:05:51;152.52;;;144.05;;
11039;SDS011;5573;49.592;8.662;2023-09-18T05:08:19;137.73;;;130.40;;
11039;SDS011;5573;49.592;8.662;2023-09-18T05:10:47;126.68;;;120.00;;
11039;SDS011;5573;49.592;8.662;2023-09-18T05:13:15;119.88;;;113.45;;
11039;SDS011;5573;49.592;8.662;2023-09-18T05:15:43;129.75;;;122.85;;
11039;SDS011;5573;49.592;8.662;2023-09-18T05:18:10;132.40;;;125.28;;
11039;SDS011;5573;49.592;8.662;2023-09-18T05:20:41;135.23;;;128.02;;
11039;SDS011;5573;49.592;8.662;2023-09-18T05:23:09;125.93;;;119.28;;
11039;SDS011;5573;49.592;8.662;2023-09-18T05:25:37;130.63;;;123.72;;
11039;SDS011;5573;49.592;8.662;2023-09-18T05:28:05;132.52;;;125.55;;
11039;SDS011;5573;49.592;8.662;2023-09-18T05:30:34;134.13;;;126.93;;
11039;SDS011;5573;49.592;8.662;2023-09-18T05:33:05;123.85;;;117.45;;
11039;SDS011;5573;49.592;8.662;2023-09-18T05:35:35;139.88;;;132.40;;
11039;SDS011;5573;49.592;8.662;2023-09-18T05:38:08;139.02;;;131.63;;
11039;SDS011;5573;49.592;8.662;2023-09-18T05:40:36;137.88;;;130.48;;
11039;SDS011;5573;49.592;8.662;2023-09-18T05:43:04;141.05;;;133.57;;
11039;SDS011;5573;49.592;8.662;2023-09-18T05:45:32;140.15;;;132.75;;
11039;SDS011;5573;49.592;8.662;2023-09-18T05:48:00;129.88;;;123.07;;
11039;SDS011;5573;49.592;8.662;2023-09-18T05:50:30;137.75;;;130.38;;
11039;SDS011;5573;49.592;8.662;2023-09-18T05:52:59;134.55;;;127.35;;
11039;SDS011;5573;49.592;8.662;2023-09-18T05:55:32;136.52;;;129.32;;
11039;SDS011;5573;49.592;8.662;2023-09-18T05:58:00;137.55;;;130.32;;
11039;SDS011;5573;49.592;8.662;2023-09-18T06:00:30;128.57;;;121.80;;
11039;SDS011;5573;49.592;8.662;2023-09-18T06:02:58;133.48;;;126.53;;
11039;SDS011;5573;49.592;8.662;2023-09-18T06:05:27;144.07;;;136.32;;
11039;SDS011;5573;49.592;8.662;2023-09-18T06:07:57;151.27;;;143.18;;
11039;SDS011;5573;49.592;8.662;2023-09-18T06:10:25;163.30;;;154.60;;
11039;SDS011;5573;49.592;8.662;2023-09-18T06:12:54;159.32;;;150.82;;
11039;SDS011;5573;49.592;8.662;2023-09-18T06:15:22;163.57;;;154.90;;
11039;SDS011;5573;49.592;8.662;2023-09-18T06:17:50;163.85;;;155.20;;
11039;SDS011;5573;49.592;8.662;2023-09-18T06:20:18;166.75;;;158.02;;
11039;SDS011;5573;49.592;8.662;2023-09-18T06:22:46;173.65;;;164.40;;
11039;SDS011;5573;49.592;8.662;2023-09-18T06:25:14;172.60;;;163.43;;
11039;SDS011;5573;49.592;8.662;2023-09-18T06:27:42;162.95;;;153.88;;
11039;SDS011;5573;49.592;8.662;2023-09-18T06:30:11;163.65;;;155.00;;
11039;SDS011;5573;49.592;8.662;2023-09-18T06:32:39;170.88;;;161.85;;
11039;SDS011;5573;49.592;8.662;2023-09-18T06:35:08;165.30;;;156.63;;
11039;SDS011;5573;49.592;8.662;2023-09-18T06:37:36;170.48;;;161.50;;
11039;SDS011;5573;49.592;8.662;2023-09-18T06:40:04;157.82;;;149.35;;
11039;SDS011;5573;49.592;8.662;2023-09-18T06:42:32;155.20;;;147.00;;
11039;SDS011;5573;49.592;8.662;2023-09-18T06:45:00;154.88;;;146.52;;
11039;SDS011;5573;49.592;8.662;2023-09-18T06:47:30;147.45;;;139.45;;
11039;SDS011;5573;49.592;8.662;2023-09-18T06:50:00;152.98;;;144.77;;
11039;SDS011;5573;49.592;8.662;2023-09-18T06:52:28;151.55;;;143.40;;
11039;SDS011;5573;49.592;8.662;2023-09-18T06:54:55;143.70;;;135.93;;
11039;SDS011;5573;49.592;8.662;2023-09-18T06:57:24;142.75;;;134.93;;
11039;SDS011;5573;49.592;8.662;2023-09-18T06:59:52;160.02;;;151.55;;
11039;SDS011;5573;49.592;8.662;2023-09-18T07:02:20;158.57;;;150.00;;
11039;SDS011;5573;49.592;8.662;2023-09-18T07:04:49;150.10;;;142.02;;
11039;SDS011;5573;49.592;8.662;2023-09-18T07:07:17;144.60;;;136.80;;
11039;SDS011;5573;49.592;8.662;2023-09-18T07:09:51;139.45;;;131.98;;
11039;SDS011;5573;49.592;8.662;2023-09-18T07:12:30;144.45;;;136.88;;
11039;SDS011;5573;49.592;8.662;2023-09-18T07:14:59;153.00;;;144.73;;
11039;SDS011;5573;49.592;8.662;2023-09-18T07:17:29;144.65;;;136.98;;
11039;SDS011;5573;49.592;8.662;2023-09-18T07:19:58;147.18;;;139.35;;
11039;SDS011;5573;49.592;8.662;2023-09-18T07:22:26;142.02;;;134.52;;
11039;SDS011;5573;49.592;8.662;2023-09-18T07:24:56;138.85;;;131.48;;
11039;SDS011;5573;49.592;8.662;2023-09-18T07:27:24;142.13;;;134.43;;
11039;SDS011;5573;49.592;8.662;2023-09-18T07:29:55;156.15;;;147.73;;
11039;SDS011;5573;49.592;8.662;2023-09-18T07:32:23;140.02;;;132.70;;
11039;SDS011;5573;49.592;8.662;2023-09-18T07:35:05;142.68;;;134.98;;
11039;SDS011;5573;49.592;8.662;2023-09-18T07:37:34;138.38;;;131.05;;
11039;SDS011;5573;49.592;8.662;2023-09-18T07:40:02;137.65;;;130.30;;
11039;SDS011;5573;49.592;8.662;2023-09-18T07:42:30;148.00;;;140.15;;
11039;SDS011;5573;49.592;8.662;2023-09-18T07:44:58;138.88;;;131.30;;
11039;SDS011;5573;49.592;8.662;2023-09-18T07:47:26;135.23;;;128.02;;
11039;SDS011;5573;49.592;8.662;2023-09-18T07:49:55;146.57;;;138.85;;
11039;SDS011;5573;49.592;8.662;2023-09-18T07:52:24;134.57;;;127.60;;
11039;SDS011;5573;49.592;8.662;2023-09-18T07:54:52;154.43;;;146.38;;
11039;SDS011;5573;49.592;8.662;2023-09-18T07:57:19;147.30;;;139.55;;
11039;SDS011;5573;49.592;8.662;2023-09-18T07:59:49;150.98;;;143.07;;
11039;SDS011;5573;49.592;8.662;2023-09-18T08:02:17;148.50;;;140.43;;
11039;SDS011;5573;49.592;8.662;2023-09-18T08:04:46;149.95;;;142.02;;
11039;SDS011;5573;49.592;8.662;2023-09-18T08:07:14;154.73;;;146.70;;
11039;SDS011;5573;49.592;8.662;2023-09-18T08:09:43;152.38;;;144.50;;
11039;SDS011;5573;49.592;8.662;2023-09-18T08:12:13;146.32;;;138.65;;
11039;SDS011;5573;49.592;8.662;2023-09-18T08:14:41;154.25;;;146.27;;
11039;SDS011;5573;49.592;8.662;2023-09-18T08:17:09;169.63;;;160.88;;
11039;SDS011;5573;49.592;8.662;2023-09-18T08:19:37;189.48;;;179.82;;
11039;SDS011;5573;49.592;8.662;2023-09-18T08:22:06;187.90;;;178.38;;
11039;SDS011;5573;49.592;8.662;2023-09-18T08:24:34;202.15;;;191.98;;
11039;SDS011;5573;49.592;8.662;2023-09-18T08:27:03;220.20;;;209.10;;
11039;SDS011;5573;49.592;8.662;2023-09-18T08:29:31;232.30;;;220.45;;
11039;SDS011;5573;49.592;8.662;2023-09-18T08:31:59;242.93;;;230.77;;
11039;SDS011;5573;49.592;8.662;2023-09-18T08:34:27;233.02;;;221.27;;
11039;SDS011;5573;49.592;8.662;2023-09-18T08:36:55;230.32;;;218.88;;
11039;SDS011;5573;49.592;8.662;2023-09-18T08:39:23;262.05;;;249.02;;
11039;SDS011;5573;49.592;8.662;2023-09-18T08:41:51;247.32;;;235.05;;
11039;SDS011;5573;49.592;8.662;2023-09-18T08:44:26;242.07;;;230.13;;
11039;SDS011;5573;49.592;8.662;2023-09-18T08:46:55;243.55;;;231.30;;
11039;SDS011;5573;49.592;8.662;2023-09-18T08:49:23;238.35;;;226.30;;
11039;SDS011;5573;49.592;8.662;2023-09-18T08:51:54;231.00;;;219.48;;
11039;SDS011;5573;49.592;8.662;2023-09-18T08:54:22;223.20;;;211.80;;
11039;SDS011;5573;49.592;8.662;2023-09-18T08:56:51;224.93;;;213.65;;
11039;SDS011;5573;49.592;8.662;2023-09-18T08:59:19;190.95;;;181.25;;
11039;SDS011;5573;49.592;8.662;2023-09-18T09:01:50;194.75;;;185.02;;
11039;SDS011;5573;49.592;8.662;2023-09-18T09:04:18;176.27;;;167.35;;
11039;SDS011;5573;49.592;8.662;2023-09-18T09:06:46;179.52;;;170.38;;
11039;SDS011;5573;49.592;8.662;2023-09-18T09:09:14;171.98;;;163.00;;
11039;SDS011;5573;49.592;8.662;2023-09-18T09:11:47;159.45;;;151.15;;
11039;SDS011;5573;49.592;8.662;2023-09-18T09:14:16;156.75;;;148.73;;
11039;SDS011;5573;49.592;8.662;2023-09-18T09:16:48;171.18;;;162.35;;
11039;SDS011;5573;49.592;8.662;2023-09-18T09:19:19;162.18;;;153.80;;
11039;SDS011;5573;49.592;8.662;2023-09-18T09:21:57;162.23;;;153.82;;
11039;SDS011;5573;49.592;8.662;2023-09-18T09:24:38;193.50;;;183.63;;
11039;SDS011;5573;49.592;8.662;2023-09-18T09:27:06;213.82;;;203.20;;
11039;SDS011;5573;49.592;8.662;2023-09-18T09:29:35;227.05;;;215.57;;
11039;SDS011;5573;49.592;8.662;2023-09-18T09:32:12;232.48;;;220.70;;
11039;SDS011;5573;49.592;8.662;2023-09-18T09:34:43;235.93;;;224.07;;
11039;SDS011;5573;49.592;8.662;2023-09-18T09:37:12;243.27;;;231.23;;
11039;SDS011;5573;49.592;8.662;2023-09-18T09:39:47;259.42;;;246.38;;
11039;SDS011;5573;49.592;8.662;2023-09-18T09:42:17;264.17;;;250.90;;
11039;SDS011;5573;49.592;8.662;2023-09-18T09:45:01;259.20;;;246.05;;
11039;SDS011;5573;49.592;8.662;2023-09-18T09:47:34;257.35;;;244.55;;
11039;SDS011;5573;49.592;8.662;2023-09-18T09:50:07;269.95;;;256.55;;
11039;SDS011;5573;49.592;8.662;2023-09-18T09:52:40;266.38;;;253.15;;
11039;SDS011;5573;49.592;8.662;2023-09-18T09:55:17;276.88;;;262.98;;
11039;SDS011;5573;49.592;8.662;2023-09-18T09:57:47;261.65;;;248.48;;
11039;SDS011;5573;49.592;8.662;2023-09-18T10:00:16;284.15;;;269.92;;
11039;SDS011;5573;49.592;8.662;2023-09-18T10:02:54;266.83;;;253.52;;
11039;SDS011;5573;49.592;8.662;2023-09-18T10:05:28;268.70;;;255.32;;
11039;SDS011;5573;49.592;8.662;2023-09-18T10:07:58;268.58;;;254.98;;
11039;SDS011;5573;49.592;8.662;2023-09-18T10:10:29;258.05;;;245.20;;
11039;SDS011;5573;49.592;8.662;2023-09-18T10:13:00;262.75;;;249.57;;
11039;SDS011;5573;49.592;8.662;2023-09-18T10:15:34;271.95;;;258.45;;
11039;SDS011;5573;49.592;8.662;2023-09-18T10:18:07;277.40;;;263.45;;
11039;SDS011;5573;49.592;8.662;2023-09-18T10:20:40;279.15;;;264.88;;
11039;SDS011;5573;49.592;8.662;2023-09-18T10:23:12;285.85;;;271.20;;
11039;SDS011;5573;49.592;8.662;2023-09-18T10:25:51;282.35;;;267.92;;
11039;SDS011;5573;49.592;8.662;2023-09-18T10:28:23;298.63;;;283.15;;
11039;SDS011;5573;49.592;8.662;2023-09-18T10:30:52;274.50;;;260.63;;
11039;SDS011;5573;49.592;8.662;2023-09-18T10:33:24;288.58;;;273.88;;
11039;SDS011;5573;49.592;8.662;2023-09-18T10:35:54;283.80;;;269.02;;
11039;SDS011;5573;49.592;8.662;2023-09-18T10:38:24;266.88;;;253.45;;
11039;SDS011;5573;49.592;8.662;2023-09-18T10:40:53;287.25;;;272.58;;
11039;SDS011;5573;49.592;8.662;2023-09-18T10:43:23;278.75;;;264.60;;
11039;SDS011;5573;49.592;8.662;2023-09-18T10:45:51;294.52;;;279.48;;
11039;SDS011;5573;49.592;8.662;2023-09-18T10:48:20;291.23;;;276.38;;
11039;SDS011;5573;49.592;8.662;2023-09-18T10:50:50;264.25;;;250.70;;
11039;SDS011;5573;49.592;8.662;2023-09-18T10:53:20;278.65;;;264.58;;
11039;SDS011;5573;49.592;8.662;2023-09-18T10:55:48;299.30;;;284.05;;
11039;SDS011;5573;49.592;8.662;2023-09-18T10:58:22;281.85;;;267.42;;
11039;SDS011;5573;49.592;8.662;2023-09-18T11:00:51;292.10;;;277.48;;
11039;SDS011;5573;49.592;8.662;2023-09-18T11:03:22;268.58;;;254.90;;
11039;SDS011;5573;49.592;8.662;2023-09-18T11:06:02;275.92;;;261.77;;
11039;SDS011;5573;49.592;8.662;2023-09-18T11:08:33;272.02;;;258.15;;
11039;SDS011;5573;49.592;8.662;2023-09-18T11:11:03;274.85;;;261.02;;
11039;SDS011;5573;49.592;8.662;2023-09-18T11:13:38;265.95;;;252.23;;
11039;SDS011;5573;49.592;8.662;2023-09-18T11:16:15;270.02;;;256.27;;
11039;SDS011;5573;49.592;8.662;2023-09-18T11:18:50;254.23;;;241.05;;
11039;SDS011;5573;49.592;8.662;2023-09-18T11:21:23;234.90;;;222.68;;
11039;SDS011;5573;49.592;8.662;2023-09-18T11:23:59;231.68;;;219.80;;
11039;SDS011;5573;49.592;8.662;2023-09-18T11:26:30;231.50;;;219.60;;
11039;SDS011;5573;49.592;8.662;2023-09-18T11:28:59;219.15;;;208.05;;
11039;SDS011;5573;49.592;8.662;2023-09-18T11:31:40;223.20;;;211.85;;
11039;SDS011;5573;49.592;8.662;2023-09-18T11:34:11;235.35;;;223.13;;
11039;SDS011;5573;49.592;8.662;2023-09-18T11:36:39;220.32;;;209.05;;
11039;SDS011;5573;49.592;8.662;2023-09-18T11:39:09;222.23;;;210.80;;
11039;SDS011;5573;49.592;8.662;2023-09-18T11:41:38;221.60;;;210.30;;
11039;SDS011;5573;49.592;8.662;2023-09-18T11:47:03;192.70;;;182.57;;
11039;SDS011;5573;49.592;8.662;2023-09-18T11:49:39;211.80;;;201.07;;
11039;SDS011;5573;49.592;8.662;2023-09-18T11:52:13;218.80;;;207.68;;
11039;SDS011;5573;49.592;8.662;2023-09-18T11:54:44;217.85;;;206.45;;
11039;SDS011;5573;49.592;8.662;2023-09-18T11:57:13;208.07;;;197.35;;
11039;SDS011;5573;49.592;8.662;2023-09-18T11:59:41;209.82;;;199.05;;
11039;SDS011;5573;49.592;8.662;2023-09-18T12:02:13;227.15;;;215.32;;
11039;SDS011;5573;49.592;8.662;2023-09-18T12:04:48;203.20;;;192.75;;
11039;SDS011;5573;49.592;8.662;2023-09-18T12:07:16;216.98;;;205.85;;
11039;SDS011;5573;49.592;8.662;2023-09-18T12:09:46;219.40;;;208.05;;
11039;SDS011;5573;49.592;8.662;2023-09-18T12:12:14;224.35;;;212.57;;
11039;SDS011;5573;49.592;8.662;2023-09-18T12:14:44;227.93;;;216.23;;
11039;SDS011;5573;49.592;8.662;2023-09-18T12:17:14;238.10;;;225.77;;
11039;SDS011;5573;49.592;8.662;2023-09-18T12:19:50;230.63;;;218.80;;
11039;SDS011;5573;49.592;8.662;2023-09-18T12:22:23;229.43;;;217.68;;
11039;SDS011;5573;49.592;8.662;2023-09-18T12:24:53;245.32;;;232.82;;
11039;SDS011;5573;49.592;8.662;2023-09-18T12:27:37;236.63;;;224.43;;
11039;SDS011;5573;49.592;8.662;2023-09-18T12:30:06;231.43;;;219.45;;
11039;SDS011;5573;49.592;8.662;2023-09-18T12:32:35;235.02;;;223.02;;
11039;SDS011;5573;49.592;8.662;2023-09-18T12:35:05;247.88;;;235.35;;
11039;SDS011;5573;49.592;8.662;2023-09-18T12:37:34;242.23;;;230.10;;
11039;SDS011;5573;49.592;8.662;2023-09-18T12:40:04;215.77;;;204.38;;
11039;SDS011;5573;49.592;8.662;2023-09-18T12:42:37;223.77;;;212.18;;
11039;SDS011;5573;49.592;8.662;2023-09-18T12:45:07;240.20;;;227.95;;
11039;SDS011;5573;49.592;8.662;2023-09-18T12:47:36;240.00;;;227.70;;
11039;SDS011;5573;49.592;8.662;2023-09-18T12:50:06;251.77;;;239.07;;
11039;SDS011;5573;49.592;8.662;2023-09-18T12:52:37;257.55;;;244.40;;
11039;SDS011;5573;49.592;8.662;2023-09-18T12:55:06;245.68;;;233.00;;
11039;SDS011;5573;49.592;8.662;2023-09-18T12:57:35;244.77;;;232.50;;
11039;SDS011;5573;49.592;8.662;2023-09-18T13:00:09;236.25;;;224.02;;
11039;SDS011;5573;49.592;8.662;2023-09-18T13:02:38;243.88;;;231.15;;
11039;SDS011;5573;49.592;8.662;2023-09-18T13:05:07;234.68;;;222.68;;
11039;SDS011;5573;49.592;8.662;2023-09-18T13:07:42;255.40;;;242.40;;
11039;SDS011;5573;49.592;8.662;2023-09-18T13:10:12;259.48;;;246.32;;
11039;SDS011;5573;49.592;8.662;2023-09-18T13:12:42;243.25;;;230.80;;
11039;SDS011;5573;49.592;8.662;2023-09-18T13:15:11;271.80;;;258.13;;
11039;SDS011;5573;49.592;8.662;2023-09-18T13:17:41;267.75;;;253.93;;
11039;SDS011;5573;49.592;8.662;2023-09-18T13:20:12;293.40;;;278.40;;
11039;SDS011;5573;49.592;8.662;2023-09-18T13:22:47;287.58;;;273.05;;
11039;SDS011;5573;49.592;8.662;2023-09-18T13:25:20;308.65;;;293.17;;
11039;SDS011;5573;49.592;8.662;2023-09-18T13:27:49;323.85;;;307.30;;
11039;SDS011;5573;49.592;8.662;2023-09-18T13:30:18;301.58;;;285.88;;
11039;SDS011;5573;49.592;8.662;2023-09-18T13:32:48;296.63;;;281.45;;
11039;SDS011;5573;49.592;8.662;2023-09-18T13:35:17;296.00;;;280.67;;
11039;SDS011;5573;49.592;8.662;2023-09-18T13:37:46;288.55;;;273.85;;
11039;SDS011;5573;49.592;8.662;2023-09-18T13:40:14;280.20;;;265.73;;
11039;SDS011;5573;49.592;8.662;2023-09-18T13:42:43;270.95;;;257.20;;
11039;SDS011;5573;49.592;8.662;2023-09-18T13:45:11;298.38;;;283.02;;
11039;SDS011;5573;49.592;8.662;2023-09-18T13:47:42;298.50;;;283.25;;
11039;SDS011;5573;49.592;8.662;2023-09-18T13:50:10;282.25;;;267.92;;
11039;SDS011;5573;49.592;8.662;2023-09-18T13:52:39;289.35;;;274.60;;
11039;SDS011;5573;49.592;8.662;2023-09-18T13:55:07;311.75;;;295.75;;
11039;SDS011;5573;49.592;8.662;2023-09-18T13:57:36;318.70;;;302.30;;
11039;SDS011;5573;49.592;8.662;2023-09-18T14:00:08;310.63;;;294.58;;
11039;SDS011;5573;49.592;8.662;2023-09-18T14:02:38;314.73;;;298.55;;
11039;SDS011;5573;49.592;8.662;2023-09-18T14:05:07;317.73;;;301.55;;
11039;SDS011;5573;49.592;8.662;2023-09-18T14:07:36;318.60;;;301.92;;
11039;SDS011;5573;49.592;8.662;2023-09-18T14:10:05;328.95;;;312.40;;
11039;SDS011;5573;49.592;8.662;2023-09-18T14:12:34;343.98;;;326.35;;
11039;SDS011;5573;49.592;8.662;2023-09-18T14:15:02;346.52;;;328.75;;
11039;SDS011;5573;49.592;8.662;2023-09-18T14:17:32;343.63;;;326.02;;
11039;SDS011;5573;49.592;8.662;2023-09-18T14:20:02;346.50;;;328.63;;
11039;SDS011;5573;49.592;8.662;2023-09-18T14:22:33;353.77;;;335.40;;
11039;SDS011;5573;49.592;8.662;2023-09-18T14:25:02;342.73;;;324.88;;
11039;SDS011;5573;49.592;8.662;2023-09-18T14:27:33;345.20;;;327.42;;